Daisinmaru No.11 — JK5352 — position and weather

sailwx.info

Track history (hours):
 
Tides and Currents Weather Stations Pressure Air Temp Water Temp Dewpoint Dewpoint Depression Visibility Wind Speed Wind Dir Waves Ship Positions

Daisinmaru No.11

Last reported at 2015-Aug-01 03:33 UTC. Time now 2015-Aug-01 03:35 UTC.
Position N 35°29' E 139°43'.

Length 52 m; draft 5.2 m.

Type: Cargo ship. MMSI: 431000667.

Date/timePositionNaut miles runAvg speedWind from/ knotsBaromVisibWave heightAir tempDewpointWater temp
2015-Aug-01 03:33N 35°29' E 139°43'1 1.5
2015-Aug-01 02:33N 35°30' E 139°44'1010.0
2015-Aug-01 01:34N 35°29' E 139°56'3 3.0
2015-Aug-01 00:33N 35°27' E 139°59'0 0.0
2015-Jul-29 23:33N 35°27' E 139°59'1 0.6
2015-Jul-29 22:33N 35°28' E 139°60'0 0.0
2015-Jul-29 04:33N 35°28' E 139°60'0 0.1
2015-Jul-29 03:33N 35°28' E 139°60'0 0.0
2015-Jul-29 02:33N 35°28' E 139°60'6 5.8
2015-Jul-29 01:33N 35°31' E 139°54'7 7.0
2015-Jul-29 00:33N 35°35' E 139°46'0 0.0
2015-Jul-28 23:33N 35°35' E 139°46'0 0.0
2015-Jul-28 22:33N 35°35' E 139°46'0 0.0
2015-Jul-28 07:33N 35°35' E 139°46'0 0.0
2015-Jul-28 06:33N 35°35' E 139°46'1 0.9
2015-Jul-28 05:33N 35°34' E 139°47'0 0.0
2015-Jul-28 04:33N 35°34' E 139°47'2 2.2
2015-Jul-28 03:33N 35°33' E 139°50'1010.0
2015-Jul-28 02:33N 35°27' E 139°60'0 0.0
2015-Jul-28 01:33N 35°27' E 139°60'0 0.0
2015-Jul-28 00:33N 35°27' E 139°60'0 0.0
2015-Jul-27 23:33N 35°27' E 139°60'0 0.0
2015-Jul-27 09:13N 35°27' E 139°60'0 0.0
2015-Jul-27 08:34N 35°27' E 139°60'0 0.2
2015-Jul-27 07:33N 35°28' E 139°60'9 8.9
2015-Jul-27 06:33N 35°30' E 139°49'5 5.3
2015-Jul-27 05:34N 35°29' E 139°43'0 0.0
2015-Jul-27 04:34N 35°29' E 139°43'0 0.0
2015-Jul-27 03:34N 35°29' E 139°43'0 0.0
2015-Jul-27 02:34N 35°29' E 139°43'7 6.9
2015-Jul-27 01:34N 35°30' E 139°51'7 7.1
2015-Jul-27 00:34N 35°27' E 139°59'0 0.0
2015-Jul-25 08:26N 35°27' E 139°59'3 3.4
2015-Jul-25 07:33N 35°30' E 140°01'5 4.9
2015-Jul-25 06:33N 35°32' E 140°06'0 0.0
2015-Jul-25 05:33N 35°32' E 140°06'8 7.8
2015-Jul-25 04:33N 35°32' E 139°56'10 9.8
2015-Jul-25 03:33N 35°30' E 139°45'2 1.6
2015-Jul-25 02:33N 35°29' E 139°43'0 0.0
2015-Jul-25 01:33N 35°29' E 139°43'4 3.5
2015-Jul-25 00:33N 35°30' E 139°47'1010.1
2015-Jul-24 23:33N 35°28' E 139°59'1 0.0
2015-Jul-23 06:21N 35°28' E 139°60'0 0.1
2015-Jul-23 05:33N 35°27' E 139°60'0 0.3
2015-Jul-23 04:33N 35°28' E 139°60'9 9.5
2015-Jul-23 03:33N 35°30' E 139°48'5 4.6
2015-Jul-23 02:33N 35°29' E 139°43'0 0.0
2015-Jul-23 01:33N 35°29' E 139°43'1 0.7
2015-Jul-23 00:33N 35°30' E 139°43'9 9.3
2015-Jul-22 23:33N 35°29' E 139°55'5 4.5
2015-Jul-22 22:33N 35°27' E 139°60'0 0.0
2015-Jul-22 06:27N 35°27' E 139°60'0 0.0
2015-Jul-22 05:33N 35°27' E 139°60'8 8.3
2015-Jul-22 04:33N 35°26' E 139°50'10 9.6
2015-Jul-22 03:34N 35°17' E 139°46'  
Track history (hours):
 
Tides and Currents Weather Stations Pressure Air Temp Water Temp Dewpoint Dewpoint Depression Visibility Wind Speed Wind Dir Waves Ship Positions

Daisinmaru No.11

Last reported at 2015-Aug-01 03:33 UTC. Time now 2015-Aug-01 03:35 UTC.
Position N 35°29' E 139°43'.

Length 52 m; draft 5.2 m.

Type: Cargo ship. MMSI: 431000667.

Date/timePositionNaut miles runAvg speedWind from/ knotsBaromVisibWave heightAir tempDewpointWater temp
2015-Aug-01 03:33N 35°29' E 139°43'1 1.5
2015-Aug-01 02:33N 35°30' E 139°44'1010.0
2015-Aug-01 01:34N 35°29' E 139°56'3 3.0
2015-Aug-01 00:33N 35°27' E 139°59'0 0.0
2015-Jul-29 23:33N 35°27' E 139°59'1 0.6
2015-Jul-29 22:33N 35°28' E 139°60'0 0.0
2015-Jul-29 04:33N 35°28' E 139°60'0 0.1
2015-Jul-29 03:33N 35°28' E 139°60'0 0.0
2015-Jul-29 02:33N 35°28' E 139°60'6 5.8
2015-Jul-29 01:33N 35°31' E 139°54'7 7.0
2015-Jul-29 00:33N 35°35' E 139°46'0 0.0
2015-Jul-28 23:33N 35°35' E 139°46'0 0.0
2015-Jul-28 22:33N 35°35' E 139°46'0 0.0
2015-Jul-28 07:33N 35°35' E 139°46'0 0.0
2015-Jul-28 06:33N 35°35' E 139°46'1 0.9
2015-Jul-28 05:33N 35°34' E 139°47'0 0.0
2015-Jul-28 04:33N 35°34' E 139°47'2 2.2
2015-Jul-28 03:33N 35°33' E 139°50'1010.0
2015-Jul-28 02:33N 35°27' E 139°60'0 0.0
2015-Jul-28 01:33N 35°27' E 139°60'0 0.0
2015-Jul-28 00:33N 35°27' E 139°60'0 0.0
2015-Jul-27 23:33N 35°27' E 139°60'0 0.0
2015-Jul-27 09:13N 35°27' E 139°60'0 0.0
2015-Jul-27 08:34N 35°27' E 139°60'0 0.2
2015-Jul-27 07:33N 35°28' E 139°60'9 8.9
2015-Jul-27 06:33N 35°30' E 139°49'5 5.3
2015-Jul-27 05:34N 35°29' E 139°43'0 0.0
2015-Jul-27 04:34N 35°29' E 139°43'0 0.0
2015-Jul-27 03:34N 35°29' E 139°43'0 0.0
2015-Jul-27 02:34N 35°29' E 139°43'7 6.9
2015-Jul-27 01:34N 35°30' E 139°51'7 7.1
2015-Jul-27 00:34N 35°27' E 139°59'0 0.0
2015-Jul-25 08:26N 35°27' E 139°59'3 3.4
2015-Jul-25 07:33N 35°30' E 140°01'5 4.9
2015-Jul-25 06:33N 35°32' E 140°06'0 0.0
2015-Jul-25 05:33N 35°32' E 140°06'8 7.8
2015-Jul-25 04:33N 35°32' E 139°56'10 9.8
2015-Jul-25 03:33N 35°30' E 139°45'2 1.6
2015-Jul-25 02:33N 35°29' E 139°43'0 0.0
2015-Jul-25 01:33N 35°29' E 139°43'4 3.5
2015-Jul-25 00:33N 35°30' E 139°47'1010.1
2015-Jul-24 23:33N 35°28' E 139°59'1 0.0
2015-Jul-23 06:21N 35°28' E 139°60'0 0.1
2015-Jul-23 05:33N 35°27' E 139°60'0 0.3
2015-Jul-23 04:33N 35°28' E 139°60'9 9.5
2015-Jul-23 03:33N 35°30' E 139°48'5 4.6
2015-Jul-23 02:33N 35°29' E 139°43'0 0.0
2015-Jul-23 01:33N 35°29' E 139°43'1 0.7
2015-Jul-23 00:33N 35°30' E 139°43'9 9.3
2015-Jul-22 23:33N 35°29' E 139°55'5 4.5
2015-Jul-22 22:33N 35°27' E 139°60'0 0.0
2015-Jul-22 06:27N 35°27' E 139°60'0 0.0
2015-Jul-22 05:33N 35°27' E 139°60'8 8.3
2015-Jul-22 04:33N 35°26' E 139°50'10 9.6
2015-Jul-22 03:34N 35°17' E 139°46'  

Dump ship's entire track history